createdAt,value
2023-04-22T00:02:25.092Z,4.07
2023-04-22T00:04:52.333Z,3.83
2023-04-22T00:07:19.505Z,3.40
2023-04-22T00:09:46.605Z,3.90
2023-04-22T00:12:13.743Z,3.70
2023-04-22T00:14:40.971Z,3.60
2023-04-22T00:17:08.073Z,3.87
2023-04-22T00:19:35.269Z,4.53
2023-04-22T00:22:02.520Z,3.40
2023-04-22T00:24:29.981Z,2.80
2023-04-22T00:26:57.198Z,4.30
2023-04-22T00:29:25.662Z,3.83
2023-04-22T00:31:53.006Z,3.60
2023-04-22T00:34:20.147Z,3.90
2023-04-22T00:36:46.856Z,3.53
2023-04-22T00:39:14.112Z,4.03
2023-04-22T00:41:41.201Z,3.57
2023-04-22T00:44:10.154Z,4.23
2023-04-22T00:46:39.044Z,4.03
2023-04-22T00:49:06.843Z,3.60
2023-04-22T00:51:33.962Z,3.73
2023-04-22T00:54:04.686Z,3.50
2023-04-22T00:56:33.490Z,3.50
2023-04-22T00:59:00.619Z,3.80
2023-04-22T01:01:28.002Z,3.43
2023-04-22T01:03:56.476Z,3.70
2023-04-22T01:06:24.315Z,3.43
2023-04-22T01:08:51.299Z,3.53
2023-04-22T01:11:18.901Z,3.90
2023-04-22T01:13:46.154Z,3.63
2023-04-22T01:16:13.693Z,4.03
2023-04-22T01:18:40.768Z,3.10
2023-04-22T01:21:07.966Z,3.63
2023-04-22T01:23:35.041Z,3.83
2023-04-22T01:26:02.134Z,3.97
2023-04-22T01:28:29.285Z,3.70
2023-04-22T01:30:56.265Z,4.47
2023-04-22T01:33:23.576Z,4.47
2023-04-22T01:35:50.778Z,4.00
2023-04-22T01:38:18.186Z,4.17
2023-04-22T01:40:45.221Z,4.30
2023-04-22T01:43:12.238Z,4.57
2023-04-22T01:45:40.057Z,4.63
2023-04-22T01:48:07.538Z,4.37
2023-04-22T01:50:34.464Z,4.33
2023-04-22T01:53:01.631Z,4.50
2023-04-22T01:55:28.733Z,5.00
2023-04-22T01:57:55.773Z,4.27
2023-04-22T02:00:23.453Z,4.47
2023-04-22T02:02:50.887Z,5.13
2023-04-22T02:05:17.992Z,4.67
2023-04-22T02:07:46.626Z,4.43
2023-04-22T02:10:16.728Z,4.40
2023-04-22T02:12:44.369Z,4.53
2023-04-22T02:15:11.539Z,4.83
2023-04-22T02:17:39.208Z,3.97
2023-04-22T02:20:06.595Z,5.27
2023-04-22T02:22:33.524Z,5.27
2023-04-22T02:25:01.258Z,4.33
2023-04-22T02:27:28.313Z,4.97
2023-04-22T02:29:55.412Z,4.47
2023-04-22T02:32:22.587Z,5.27
2023-04-22T02:34:49.736Z,4.77
2023-04-22T02:37:17.047Z,4.23
2023-04-22T02:39:44.076Z,4.73
2023-04-22T02:42:11.803Z,3.53
2023-04-22T02:44:38.980Z,3.90
2023-04-22T02:47:07.069Z,4.40
2023-04-22T02:49:33.900Z,4.40
2023-04-22T02:52:00.956Z,4.77
2023-04-22T02:54:28.018Z,3.80
2023-04-22T02:56:54.640Z,4.63
2023-04-22T02:59:23.198Z,4.30
2023-04-22T03:01:50.399Z,3.77
2023-04-22T03:04:32.365Z,3.77
2023-04-22T03:06:59.750Z,3.50
2023-04-22T03:09:26.820Z,3.77
2023-04-22T03:11:53.864Z,3.97
2023-04-22T03:14:20.650Z,4.10
2023-04-22T03:16:47.798Z,4.17
2023-04-22T03:19:16.341Z,4.17
2023-04-22T03:21:43.403Z,4.20
2023-04-22T03:24:10.516Z,5.03
2023-04-22T03:26:43.011Z,3.90
2023-04-22T03:29:10.078Z,3.60
2023-04-22T03:31:37.689Z,3.90
2023-04-22T03:34:04.993Z,3.90
2023-04-22T03:36:32.418Z,4.00
2023-04-22T03:38:59.465Z,3.57
2023-04-22T03:41:27.141Z,3.27
2023-04-22T03:43:54.302Z,3.40
2023-04-22T03:46:21.920Z,3.60
2023-04-22T03:49:00.181Z,3.67
2023-04-22T03:51:31.276Z,4.13
2023-04-22T03:54:00.892Z,3.90
2023-04-22T03:56:30.904Z,4.10
2023-04-22T03:59:00.631Z,4.40
2023-04-22T04:01:27.821Z,4.20
2023-04-22T04:03:58.914Z,3.70
2023-04-22T04:06:33.512Z,3.47
2023-04-22T04:09:01.649Z,4.10
2023-04-22T04:11:29.544Z,4.10
2023-04-22T04:13:57.623Z,3.23
2023-04-22T04:16:28.156Z,4.17
2023-04-22T04:19:01.460Z,4.33
2023-04-22T04:21:29.290Z,4.13
2023-04-22T04:23:56.547Z,3.73
2023-04-22T04:26:27.580Z,3.63
2023-04-22T04:29:01.612Z,4.03
2023-04-22T04:31:29.043Z,3.93
2023-04-22T04:33:57.704Z,4.23
2023-04-22T04:36:29.003Z,4.40
2023-04-22T04:39:01.705Z,3.70
2023-04-22T04:41:29.530Z,4.43
2023-04-22T04:43:56.709Z,4.47
2023-04-22T04:46:29.680Z,3.90
2023-04-22T04:48:57.461Z,4.30
2023-04-22T04:51:26.500Z,4.10
2023-04-22T04:53:57.275Z,3.90
2023-04-22T04:56:26.711Z,3.90
2023-04-22T04:58:54.169Z,3.80
2023-04-22T05:01:26.919Z,4.20
2023-04-22T05:03:56.883Z,3.53
2023-04-22T05:06:24.151Z,4.27
2023-04-22T05:08:58.969Z,4.10
2023-04-22T05:11:26.134Z,4.17
2023-04-22T05:13:54.737Z,4.70
2023-04-22T05:16:27.275Z,4.17
2023-04-22T05:18:54.435Z,4.10
2023-04-22T05:21:21.535Z,4.50
2023-04-22T05:23:49.348Z,4.20
2023-04-22T05:26:16.425Z,3.67
2023-04-22T05:28:46.115Z,3.90
2023-04-22T05:31:13.707Z,3.90
2023-04-22T05:33:41.024Z,3.73
2023-04-22T05:36:08.271Z,3.30
2023-04-22T05:38:35.746Z,3.67
2023-04-22T05:41:02.780Z,4.00
2023-04-22T05:43:30.234Z,3.27
2023-04-22T05:46:04.097Z,3.63
2023-04-22T05:48:33.809Z,3.50
2023-04-22T05:51:03.942Z,2.83
2023-04-22T05:53:31.304Z,3.50
2023-04-22T05:56:00.702Z,3.07
2023-04-22T05:58:27.322Z,3.10
2023-04-22T06:00:55.215Z,3.33
2023-04-22T06:03:47.109Z,3.00
2023-04-22T06:06:14.557Z,3.10
2023-04-22T06:08:41.592Z,3.10
2023-04-22T06:11:08.823Z,3.50
2023-04-22T06:13:37.050Z,3.27
2023-04-22T06:16:05.236Z,3.00
2023-04-22T06:18:33.319Z,2.70
2023-04-22T06:21:01.001Z,3.20
2023-04-22T06:23:28.138Z,2.97
2023-04-22T06:25:55.443Z,3.73
2023-04-22T06:28:23.788Z,3.63
2023-04-22T06:30:54.390Z,2.97
2023-04-22T06:33:21.147Z,3.43
2023-04-22T06:35:48.285Z,3.27
2023-04-22T06:38:15.144Z,3.43
2023-04-22T06:40:56.637Z,3.00
2023-04-22T06:43:28.261Z,2.57
2023-04-22T06:46:24.295Z,3.07
2023-04-22T06:48:51.333Z,2.67
2023-04-22T06:51:40.288Z,2.90
2023-04-22T06:54:08.171Z,3.20
2023-04-22T06:56:36.037Z,2.90
2023-04-22T06:59:02.718Z,2.63
2023-04-22T07:01:30.416Z,2.77
2023-04-22T07:03:57.903Z,2.60
2023-04-22T07:06:25.218Z,3.00
2023-04-22T07:08:52.382Z,2.60
2023-04-22T07:11:19.419Z,2.07
2023-04-22T07:13:58.228Z,2.10
2023-04-22T07:16:25.491Z,1.97
2023-04-22T07:18:52.605Z,1.80
2023-04-22T07:21:19.604Z,2.63
2023-04-22T07:23:46.252Z,1.90
2023-04-22T07:26:13.334Z,2.23
2023-04-22T07:28:39.956Z,2.60
2023-04-22T07:31:07.041Z,2.13
2023-04-22T07:33:34.113Z,1.93
2023-04-22T07:36:01.520Z,2.10
2023-04-22T07:38:28.615Z,2.30
2023-04-22T07:40:55.669Z,2.20
2023-04-22T07:43:22.778Z,2.40
2023-04-22T07:45:49.924Z,2.37
2023-04-22T07:48:17.250Z,2.00
2023-04-22T07:50:44.309Z,2.40
2023-04-22T07:53:11.526Z,1.87
2023-04-22T07:55:38.143Z,2.20
2023-04-22T07:58:06.574Z,2.43
2023-04-22T08:00:35.030Z,2.27
2023-04-22T08:03:02.882Z,2.03
2023-04-22T08:05:30.087Z,2.13
2023-04-22T08:07:57.218Z,2.13
2023-04-22T08:10:23.902Z,2.30
2023-04-22T08:12:50.994Z,2.30
2023-04-22T08:15:17.836Z,2.03
2023-04-22T08:17:44.958Z,2.40
2023-04-22T08:20:12.234Z,2.10
2023-04-22T08:22:38.882Z,2.53
2023-04-22T08:25:06.646Z,2.03
2023-04-22T08:27:33.689Z,2.00
2023-04-22T08:30:00.845Z,2.40
2023-04-22T08:32:27.943Z,2.60
2023-04-22T08:35:01.409Z,2.17
2023-04-22T08:37:31.675Z,2.03
2023-04-22T08:39:58.365Z,2.30
2023-04-22T08:42:26.739Z,2.20
2023-04-22T08:44:54.176Z,2.40
2023-04-22T08:47:21.497Z,2.10
2023-04-22T08:49:50.232Z,2.47
2023-04-22T08:52:17.324Z,2.10
2023-04-22T08:54:43.915Z,2.20
2023-04-22T08:57:11.280Z,2.43
2023-04-22T08:59:39.079Z,2.20
2023-04-22T09:02:08.640Z,2.83
2023-04-22T09:04:36.384Z,2.37
2023-04-22T09:07:03.726Z,2.17
2023-04-22T09:09:31.999Z,2.63
2023-04-22T09:11:58.861Z,2.60
2023-04-22T09:14:26.611Z,2.37
2023-04-22T09:16:53.449Z,2.17
2023-04-22T09:19:24.563Z,2.37
2023-04-22T09:21:54.122Z,2.63
2023-04-22T09:24:21.143Z,2.70
2023-04-22T09:26:48.567Z,2.40
2023-04-22T09:29:16.247Z,2.27
2023-04-22T09:31:47.722Z,2.23
2023-04-22T09:34:14.838Z,2.20
2023-04-22T09:36:43.629Z,2.37
2023-04-22T09:39:10.409Z,1.80
2023-04-22T09:41:39.345Z,2.20
2023-04-22T09:44:10.464Z,2.20
2023-04-22T09:46:37.173Z,2.00
2023-04-22T09:49:03.799Z,1.93
2023-04-22T09:51:30.688Z,2.23
2023-04-22T09:54:04.096Z,2.10
2023-04-22T09:56:50.497Z,2.30
2023-04-22T09:59:28.172Z,2.07
2023-04-22T10:02:04.409Z,2.30
2023-04-22T10:04:31.176Z,2.17
2023-04-22T10:06:58.044Z,1.70
2023-04-22T10:09:25.570Z,2.13
2023-04-22T10:11:54.500Z,2.30
2023-04-22T10:14:25.347Z,2.00
2023-04-22T10:16:59.474Z,2.30
2023-04-22T10:19:27.286Z,2.30
2023-04-22T10:21:56.984Z,2.20
2023-04-22T10:24:27.466Z,2.20
2023-04-22T10:26:59.923Z,2.10
2023-04-22T10:29:28.028Z,2.20
2023-04-22T10:32:10.230Z,2.20
2023-04-22T10:34:38.913Z,2.37
2023-04-22T10:37:11.715Z,2.00
2023-04-22T10:39:40.522Z,2.20
2023-04-22T10:42:10.303Z,2.27
2023-04-22T10:44:53.939Z,2.00
2023-04-22T10:47:34.767Z,1.90
2023-04-22T10:50:30.911Z,1.60
2023-04-22T10:53:36.332Z,1.97
2023-04-22T10:56:17.911Z,1.90
2023-04-22T10:58:44.568Z,2.00
2023-04-22T11:01:17.213Z,1.80
2023-04-22T11:03:44.165Z,1.80
2023-04-22T11:06:18.935Z,1.80
2023-04-22T11:08:50.226Z,2.10
2023-04-22T11:11:18.662Z,1.90
2023-04-22T11:13:47.366Z,1.50
2023-04-22T11:16:14.060Z,1.77
2023-04-22T11:18:40.768Z,1.73
2023-04-22T11:21:09.221Z,2.03
2023-04-22T11:23:36.949Z,1.90
2023-04-22T11:26:05.946Z,1.80
2023-04-22T11:28:32.977Z,2.00
2023-04-22T11:31:07.188Z,2.23
2023-04-22T11:33:34.814Z,1.63
2023-04-22T11:36:02.087Z,2.00
2023-04-22T11:38:28.901Z,1.70
2023-04-22T11:40:57.878Z,1.90
2023-04-22T11:43:24.901Z,1.50
2023-04-22T11:45:51.782Z,1.67
2023-04-22T11:48:18.474Z,1.70
2023-04-22T11:50:45.418Z,1.83
2023-04-22T11:53:23.912Z,1.77
2023-04-22T11:55:51.328Z,1.90
2023-04-22T11:58:27.053Z,2.00
2023-04-22T12:00:56.164Z,2.10
2023-04-22T12:03:25.574Z,2.20
2023-04-22T12:05:57.743Z,1.90
2023-04-22T12:08:33.118Z,1.93
2023-04-22T12:11:02.458Z,1.80
2023-04-22T12:13:32.909Z,2.00
2023-04-22T12:16:01.835Z,1.90
2023-04-22T12:18:30.604Z,1.70
2023-04-22T12:21:13.628Z,1.40
2023-04-22T12:23:51.170Z,1.80
2023-04-22T12:26:20.094Z,1.60
2023-04-22T12:28:47.307Z,1.90
2023-04-22T12:31:15.419Z,1.93
2023-04-22T12:33:42.964Z,1.30
2023-04-22T12:36:09.873Z,1.80
2023-04-22T12:38:36.758Z,1.83
2023-04-22T12:41:04.930Z,1.77
2023-04-22T12:43:33.402Z,1.67
2023-04-22T12:46:00.170Z,1.60
2023-04-22T12:48:26.897Z,1.43
2023-04-22T12:50:53.586Z,1.63
2023-04-22T12:53:21.861Z,1.50
2023-04-22T12:55:48.546Z,1.57
2023-04-22T12:58:15.850Z,1.40
2023-04-22T13:00:42.559Z,1.70
2023-04-22T13:03:09.437Z,1.60
2023-04-22T13:05:36.155Z,1.70
2023-04-22T13:08:07.486Z,1.60
2023-04-22T13:10:35.027Z,1.80
2023-04-22T13:13:17.055Z,1.77
2023-04-22T13:15:47.602Z,1.50
2023-04-22T13:18:16.107Z,1.20
2023-04-22T13:20:42.834Z,1.77
2023-04-22T13:23:10.403Z,1.60
2023-04-22T13:25:37.125Z,1.40
2023-04-22T13:28:03.835Z,1.20
2023-04-22T13:30:30.433Z,1.30
2023-04-22T13:32:57.069Z,1.50
2023-04-22T13:35:24.248Z,1.40
2023-04-22T13:37:51.088Z,1.50
2023-04-22T13:40:17.706Z,1.77
2023-04-22T13:42:44.417Z,1.40
2023-04-22T13:45:11.257Z,1.90
2023-04-22T13:47:37.871Z,1.80
2023-04-22T13:50:05.963Z,1.83
2023-04-22T13:52:32.794Z,1.70
2023-04-22T13:54:59.392Z,1.70
2023-04-22T13:57:26.023Z,1.63
2023-04-22T13:59:52.632Z,1.80
2023-04-22T14:02:19.259Z,1.47
2023-04-22T14:04:46.022Z,1.33
2023-04-22T14:07:12.969Z,1.63
2023-04-22T14:09:39.782Z,1.30
2023-04-22T14:12:07.868Z,1.50
2023-04-22T14:14:34.643Z,1.60
2023-04-22T14:17:01.481Z,1.40
2023-04-22T14:19:30.138Z,1.53
2023-04-22T14:21:56.843Z,1.30
2023-04-22T14:24:24.333Z,1.63
2023-04-22T14:26:52.280Z,1.30
2023-04-22T14:29:19.046Z,1.30
2023-04-22T14:31:45.761Z,1.50
2023-04-22T14:34:12.383Z,1.50
2023-04-22T14:36:39.007Z,1.60
2023-04-22T14:39:06.613Z,1.40
2023-04-22T14:41:33.260Z,1.47
2023-04-22T14:43:59.919Z,1.90
2023-04-22T14:46:26.839Z,1.70
2023-04-22T14:48:53.523Z,1.50
2023-04-22T14:51:20.157Z,1.30
2023-04-22T14:53:46.885Z,1.37
2023-04-22T14:56:14.116Z,1.40
2023-04-22T14:58:40.735Z,1.87
2023-04-22T15:01:07.746Z,1.33
2023-04-22T15:03:35.824Z,1.53
2023-04-22T15:06:02.900Z,1.50
2023-04-22T15:08:29.657Z,1.60
2023-04-22T15:10:56.557Z,1.90
2023-04-22T15:13:23.204Z,1.37
2023-04-22T15:15:49.951Z,2.17
2023-04-22T15:18:16.641Z,1.50
2023-04-22T15:20:43.303Z,1.50
2023-04-22T15:23:09.990Z,1.70
2023-04-22T15:25:37.382Z,1.90
2023-04-22T15:28:04.127Z,1.73
2023-04-22T15:30:30.774Z,2.57
2023-04-22T15:32:57.508Z,1.50
2023-04-22T15:35:24.289Z,1.60
2023-04-22T15:37:50.976Z,1.70
2023-04-22T15:40:17.580Z,1.70
2023-04-22T15:42:44.247Z,1.70
2023-04-22T15:45:11.292Z,1.70
2023-04-22T15:47:38.009Z,1.90
2023-04-22T15:50:09.033Z,1.90
2023-04-22T15:52:37.459Z,1.47
2023-04-22T15:55:07.941Z,2.00
2023-04-22T15:57:35.388Z,1.77
2023-04-22T16:00:11.658Z,1.73
2023-04-22T16:02:43.794Z,1.80
2023-04-22T16:05:11.752Z,2.70
2023-04-22T16:07:38.962Z,1.70
2023-04-22T16:10:06.427Z,3.37
2023-04-22T16:12:34.244Z,2.70
2023-04-22T16:15:02.044Z,4.60
2023-04-22T16:17:29.647Z,2.70
2023-04-22T16:19:56.842Z,2.10
2023-04-22T16:22:23.536Z,2.00
2023-04-22T16:24:50.579Z,2.30
2023-04-22T16:27:19.033Z,2.27
2023-04-22T16:29:46.440Z,2.07
2023-04-22T16:32:13.677Z,2.00
2023-04-22T16:34:40.904Z,2.10
2023-04-22T16:37:08.052Z,2.00
2023-04-22T16:39:34.893Z,2.77
2023-04-22T16:42:02.292Z,2.60
2023-04-22T16:44:29.008Z,2.10
2023-04-22T16:46:56.067Z,2.10
2023-04-22T16:49:23.156Z,2.63
2023-04-22T16:51:50.491Z,3.03
2023-04-22T16:54:17.598Z,2.10
2023-04-22T16:56:44.635Z,2.60
2023-04-22T16:59:11.659Z,2.80
2023-04-22T17:01:40.761Z,2.50
2023-04-22T17:04:08.553Z,2.60
2023-04-22T17:06:37.582Z,2.70
2023-04-22T17:09:06.304Z,3.20
2023-04-22T17:11:33.367Z,2.70
2023-04-22T17:13:59.947Z,2.90
2023-04-22T17:16:26.734Z,2.80
2023-04-22T17:18:53.858Z,3.00
2023-04-22T17:21:22.960Z,2.67
2023-04-22T17:23:50.582Z,3.10
2023-04-22T17:26:17.740Z,2.47
2023-04-22T17:28:44.867Z,2.77
2023-04-22T17:31:12.356Z,3.40
2023-04-22T17:33:40.784Z,3.60
2023-04-22T17:36:07.507Z,3.63
2023-04-22T17:38:34.586Z,4.10
2023-04-22T17:41:01.717Z,3.53
2023-04-22T17:43:28.379Z,3.07
2023-04-22T17:45:55.500Z,3.07
2023-04-22T17:48:22.560Z,3.30
2023-04-22T17:50:49.575Z,3.27
2023-04-22T17:53:16.865Z,3.20
2023-04-22T17:55:43.926Z,3.10
2023-04-22T17:58:11.005Z,3.30
2023-04-22T18:00:38.071Z,3.40
2023-04-22T18:03:05.660Z,3.40
2023-04-22T18:05:32.881Z,3.63
2023-04-22T18:08:03.988Z,3.00
2023-04-22T18:10:31.559Z,3.10
2023-04-22T18:12:58.242Z,3.47
2023-04-22T18:15:25.499Z,3.00
2023-04-22T18:17:52.663Z,3.13
2023-04-22T18:20:20.129Z,3.17
2023-04-22T18:22:53.703Z,3.10
2023-04-22T18:25:21.021Z,3.03
2023-04-22T18:27:50.339Z,3.30
2023-04-22T18:30:17.032Z,3.07
2023-04-22T18:32:43.824Z,3.43
2023-04-22T18:35:10.985Z,2.97
2023-04-22T18:37:38.056Z,3.20
2023-04-22T18:40:06.109Z,3.20
2023-04-22T18:42:32.802Z,3.70
2023-04-22T18:44:59.506Z,4.27
2023-04-22T18:47:26.649Z,3.67
2023-04-22T18:49:53.705Z,3.70
2023-04-22T18:52:20.472Z,3.50
2023-04-22T18:54:47.517Z,3.83
2023-04-22T18:57:14.529Z,4.03
2023-04-22T18:59:42.195Z,3.83
2023-04-22T19:02:13.377Z,4.10
2023-04-22T19:04:40.887Z,4.10
2023-04-22T19:07:08.499Z,4.07
2023-04-22T19:09:35.833Z,4.00
2023-04-22T19:12:02.996Z,4.53
2023-04-22T19:14:30.148Z,3.93
2023-04-22T19:16:57.214Z,4.63
2023-04-22T19:19:25.673Z,4.40
2023-04-22T19:21:52.916Z,3.63
2023-04-22T19:24:20.099Z,3.90
2023-04-22T19:26:47.276Z,4.63
2023-04-22T19:29:16.158Z,4.73
2023-04-22T19:31:46.244Z,4.73
2023-04-22T19:34:13.567Z,5.57
2023-04-22T19:36:40.704Z,4.80
2023-04-22T19:39:08.267Z,4.67
2023-04-22T19:41:35.434Z,4.60
2023-04-22T19:44:02.449Z,4.70
2023-04-22T19:46:29.557Z,4.80
2023-04-22T19:48:56.909Z,4.67
2023-04-22T19:51:23.900Z,4.03
2023-04-22T19:53:51.445Z,4.63
2023-04-22T19:56:18.564Z,3.33
2023-04-22T19:58:45.892Z,3.67
2023-04-22T20:01:13.072Z,3.80
2023-04-22T20:03:40.607Z,4.27
2023-04-22T20:06:08.026Z,4.53
2023-04-22T20:08:35.529Z,4.30
2023-04-22T20:11:02.778Z,3.93
2023-04-22T20:13:30.946Z,4.40
2023-04-22T20:15:59.421Z,4.37
2023-04-22T20:18:26.852Z,4.57
2023-04-22T20:20:58.282Z,4.60
2023-04-22T20:23:26.365Z,5.07
2023-04-22T20:25:55.853Z,4.60
2023-04-22T20:28:23.511Z,4.53
2023-04-22T20:30:50.901Z,4.60
2023-04-22T20:33:19.198Z,4.43
2023-04-22T20:35:47.899Z,4.50
2023-04-22T20:38:15.143Z,5.27
2023-04-22T20:40:44.600Z,4.70
2023-04-22T20:43:12.876Z,4.07
2023-04-22T20:45:40.089Z,5.07
2023-04-22T20:48:07.486Z,5.10
2023-04-22T20:50:34.589Z,4.60
2023-04-22T20:53:03.169Z,4.23
2023-04-22T20:55:29.858Z,4.23
2023-04-22T20:57:56.897Z,4.77
2023-04-22T21:00:23.936Z,4.30
2023-04-22T21:02:51.332Z,4.67
2023-04-22T21:05:18.650Z,4.23
2023-04-22T21:07:49.634Z,4.53
2023-04-22T21:10:16.656Z,4.23
2023-04-22T21:12:43.966Z,4.17
2023-04-22T21:15:11.404Z,4.80
2023-04-22T21:17:44.369Z,4.63
2023-04-22T21:20:12.166Z,4.73
2023-04-22T21:22:42.324Z,4.30
2023-04-22T21:25:09.725Z,4.67
2023-04-22T21:27:36.908Z,4.33
2023-04-22T21:30:04.132Z,4.63
2023-04-22T21:32:32.683Z,5.10
2023-04-22T21:35:00.472Z,4.97
2023-04-22T21:37:27.560Z,5.10
2023-04-22T21:39:54.603Z,4.70
2023-04-22T21:42:22.035Z,4.63
2023-04-22T21:44:50.701Z,5.13
2023-04-22T21:47:17.787Z,5.10
2023-04-22T21:49:46.466Z,4.97
2023-04-22T21:52:13.475Z,5.17
2023-04-22T21:54:40.751Z,5.20
2023-04-22T21:57:09.023Z,5.10
2023-04-22T21:59:36.025Z,5.10
2023-04-22T22:02:03.241Z,5.13
2023-04-22T22:04:30.482Z,5.23
2023-04-22T22:06:57.613Z,5.57
2023-04-22T22:09:24.288Z,5.77
2023-04-22T22:11:51.298Z,5.30
2023-04-22T22:14:18.733Z,5.17
2023-04-22T22:16:46.923Z,5.87
2023-04-22T22:19:14.346Z,5.43
2023-04-22T22:21:41.509Z,5.37
2023-04-22T22:24:09.323Z,5.23
2023-04-22T22:26:36.513Z,5.67
2023-04-22T22:29:03.697Z,5.43
2023-04-22T22:31:30.781Z,5.30
2023-04-22T22:33:58.689Z,4.67
2023-04-22T22:36:25.705Z,5.17
2023-04-22T22:38:52.735Z,5.43
2023-04-22T22:41:19.733Z,4.17
2023-04-22T22:43:46.969Z,4.13
2023-04-22T22:46:14.071Z,4.13
2023-04-22T22:48:40.855Z,4.00
2023-04-22T22:51:09.349Z,3.33
2023-04-22T22:53:36.722Z,3.17
2023-04-22T22:56:03.890Z,3.53
2023-04-22T22:58:33.764Z,2.70
2023-04-22T23:01:00.506Z,3.30
2023-04-22T23:03:27.837Z,2.63
2023-04-22T23:05:55.073Z,2.97
2023-04-22T23:08:22.096Z,3.23
2023-04-22T23:10:49.277Z,2.93
2023-04-22T23:13:16.341Z,2.67
2023-04-22T23:15:43.338Z,2.70
2023-04-22T23:18:10.577Z,2.93
2023-04-22T23:20:37.773Z,3.10
2023-04-22T23:23:04.852Z,4.00
2023-04-22T23:25:32.021Z,3.67
2023-04-22T23:27:58.995Z,4.87
2023-04-22T23:30:26.135Z,5.10
2023-04-22T23:32:57.252Z,6.57
2023-04-22T23:35:27.284Z,6.43
2023-04-22T23:37:54.524Z,7.50
2023-04-22T23:40:21.618Z,7.03
2023-04-22T23:42:48.848Z,7.63
2023-04-22T23:45:15.919Z,8.27
2023-04-22T23:47:42.966Z,8.27
2023-04-22T23:50:10.161Z,8.87
2023-04-22T23:52:40.469Z,10.00
2023-04-22T23:55:11.751Z,9.57
2023-04-22T23:57:39.155Z,9.43
